createdAt,value
2017-10-22T00:01:04.513Z,1.10
2017-10-22T00:03:32.065Z,1.03
2017-10-22T00:05:59.569Z,1.20
2017-10-22T00:08:27.123Z,1.23
2017-10-22T00:10:55.424Z,2.90
2017-10-22T00:13:22.973Z,1.57
2017-10-22T00:15:50.574Z,0.80
2017-10-22T00:18:18.093Z,1.13
2017-10-22T00:20:45.729Z,1.40
2017-10-22T00:23:13.251Z,1.40
2017-10-22T00:25:40.784Z,1.30
2017-10-22T00:28:08.296Z,1.30
2017-10-22T00:30:35.827Z,1.30
2017-10-22T00:33:03.374Z,1.57
2017-10-22T00:35:30.892Z,1.70
2017-10-22T00:37:58.397Z,1.77
2017-10-22T00:40:25.960Z,1.90
2017-10-22T00:42:53.463Z,1.60
2017-10-22T00:45:21.073Z,1.37
2017-10-22T00:47:48.597Z,1.80
2017-10-22T00:50:16.158Z,1.43
2017-10-22T00:52:44.446Z,1.80
2017-10-22T00:55:12.006Z,1.63
2017-10-22T00:57:39.573Z,1.10
2017-10-22T01:00:07.072Z,1.63
2017-10-22T01:02:34.602Z,1.50
2017-10-22T01:05:02.171Z,0.90
2017-10-22T01:07:29.666Z,0.97
2017-10-22T01:09:57.249Z,1.20
2017-10-22T01:12:24.795Z,0.90
2017-10-22T01:14:53.223Z,1.10
2017-10-22T01:17:20.777Z,1.27
2017-10-22T01:19:48.293Z,0.93
2017-10-22T01:22:16.444Z,1.10
2017-10-22T01:24:43.997Z,1.30
2017-10-22T01:27:11.561Z,1.30
2017-10-22T01:29:39.069Z,1.00
2017-10-22T01:32:06.636Z,1.87
2017-10-22T01:34:34.136Z,1.17
2017-10-22T01:37:01.704Z,1.90
2017-10-22T01:39:29.204Z,2.03
2017-10-22T01:41:56.724Z,1.53
2017-10-22T01:44:24.541Z,1.63
2017-10-22T01:46:52.044Z,1.50
2017-10-22T01:49:19.580Z,2.20
2017-10-22T01:51:47.098Z,1.93
2017-10-22T01:54:14.729Z,1.83
2017-10-22T01:56:42.276Z,2.17
2017-10-22T01:59:09.790Z,1.87
2017-10-22T02:01:37.336Z,1.30
2017-10-22T02:04:04.862Z,2.43
2017-10-22T02:06:32.424Z,1.50
2017-10-22T02:08:59.956Z,1.50
2017-10-22T02:11:27.564Z,1.30
2017-10-22T02:13:55.853Z,1.20
2017-10-22T02:16:23.351Z,1.30
2017-10-22T02:18:50.990Z,2.20
2017-10-22T02:21:18.561Z,1.70
2017-10-22T02:23:46.152Z,1.53
2017-10-22T02:26:14.384Z,1.90
2017-10-22T02:28:41.960Z,1.60
2017-10-22T02:31:09.521Z,2.27
2017-10-22T02:33:37.053Z,2.07
2017-10-22T02:36:04.582Z,1.80
2017-10-22T02:38:32.845Z,2.17
2017-10-22T02:41:00.431Z,1.80
2017-10-22T02:43:28.002Z,2.50
2017-10-22T02:45:55.536Z,1.53
2017-10-22T02:48:23.880Z,1.70
2017-10-22T02:50:51.410Z,2.40
2017-10-22T02:53:18.978Z,1.83
2017-10-22T02:55:46.524Z,1.20
2017-10-22T02:58:14.038Z,1.30
2017-10-22T03:00:41.576Z,0.97
2017-10-22T03:03:09.123Z,1.90
2017-10-22T03:05:36.689Z,2.03
2017-10-22T03:08:04.204Z,1.60
2017-10-22T03:10:31.852Z,1.60
2017-10-22T03:12:59.410Z,1.63
2017-10-22T03:15:27.696Z,1.60
2017-10-22T03:17:55.252Z,1.80
2017-10-22T03:20:23.743Z,2.43
2017-10-22T03:22:51.339Z,2.07
2017-10-22T03:25:18.917Z,1.83
2017-10-22T03:27:46.420Z,1.73
2017-10-22T03:30:14.002Z,1.77
2017-10-22T03:32:41.540Z,1.50
2017-10-22T03:35:09.863Z,1.60
2017-10-22T03:37:37.419Z,1.77
2017-10-22T03:40:04.969Z,2.23
2017-10-22T03:42:32.480Z,1.70
2017-10-22T03:44:59.995Z,1.50
2017-10-22T03:47:27.838Z,1.80
2017-10-22T03:49:55.338Z,2.00
2017-10-22T03:52:22.880Z,1.87
2017-10-22T03:54:50.480Z,1.93
2017-10-22T03:57:18.024Z,1.93
2017-10-22T03:59:45.572Z,2.03
2017-10-22T04:02:13.130Z,2.40
2017-10-22T04:04:40.713Z,1.73
2017-10-22T04:07:09.016Z,1.67
2017-10-22T04:09:36.564Z,1.57
2017-10-22T04:12:04.866Z,1.70
2017-10-22T04:14:32.431Z,1.70
2017-10-22T04:17:00.001Z,2.17
2017-10-22T04:19:27.504Z,2.07
2017-10-22T04:21:55.013Z,1.60
2017-10-22T04:24:22.554Z,1.70
2017-10-22T04:26:50.060Z,2.00
2017-10-22T04:29:17.699Z,1.90
2017-10-22T04:31:45.242Z,2.30
2017-10-22T04:34:12.764Z,3.50
2017-10-22T04:36:40.317Z,2.50
2017-10-22T04:39:07.853Z,2.23
2017-10-22T04:41:35.372Z,2.20
2017-10-22T04:44:02.884Z,2.40
2017-10-22T04:46:30.432Z,2.50
2017-10-22T04:48:58.009Z,3.23
2017-10-22T04:51:25.540Z,3.93
2017-10-22T04:53:53.081Z,3.57
2017-10-22T04:56:20.588Z,3.40
2017-10-22T04:58:48.123Z,2.50
2017-10-22T05:01:15.636Z,2.43
2017-10-22T05:03:43.164Z,1.73
2017-10-22T05:06:11.452Z,1.87
2017-10-22T05:08:39.739Z,1.77
2017-10-22T05:11:07.292Z,2.20
2017-10-22T05:13:35.547Z,2.37
2017-10-22T05:16:03.158Z,2.03
2017-10-22T05:18:30.678Z,2.27
2017-10-22T05:20:58.985Z,1.60
2017-10-22T05:23:26.489Z,2.30
2017-10-22T05:25:54.037Z,1.80
2017-10-22T05:28:21.529Z,1.47
2017-10-22T05:30:49.044Z,2.07
2017-10-22T05:33:16.774Z,1.97
2017-10-22T05:35:44.305Z,1.93
2017-10-22T05:38:12.580Z,2.43
2017-10-22T05:40:40.164Z,2.10
2017-10-22T05:43:07.704Z,2.00
2017-10-22T05:45:35.963Z,2.30
2017-10-22T05:48:03.504Z,3.13
2017-10-22T05:50:31.003Z,2.20
2017-10-22T05:52:59.293Z,3.73
2017-10-22T05:55:26.828Z,2.80
2017-10-22T05:57:55.485Z,2.50
2017-10-22T06:00:23.024Z,2.80
2017-10-22T06:02:50.515Z,2.30
2017-10-22T06:05:18.056Z,2.57
2017-10-22T06:07:45.545Z,2.60
2017-10-22T06:10:13.836Z,2.40
2017-10-22T06:12:41.374Z,2.40
2017-10-22T06:15:08.928Z,2.43
2017-10-22T06:17:41.411Z,2.60
2017-10-22T06:20:08.963Z,2.33
2017-10-22T06:22:36.484Z,2.30
2017-10-22T06:25:04.033Z,2.10
2017-10-22T06:27:31.604Z,2.13
2017-10-22T06:29:59.111Z,2.93
2017-10-22T06:32:27.393Z,2.63
2017-10-22T06:34:54.921Z,3.53
2017-10-22T06:37:22.431Z,3.67
2017-10-22T06:39:49.964Z,2.70
2017-10-22T06:42:17.505Z,1.57
2017-10-22T06:44:45.069Z,1.33
2017-10-22T06:47:12.601Z,2.30
2017-10-22T06:49:40.111Z,2.13
2017-10-22T06:52:07.637Z,1.67
2017-10-22T06:54:35.624Z,1.40
2017-10-22T06:57:03.957Z,2.60
2017-10-22T06:59:31.476Z,1.87
2017-10-22T07:01:58.984Z,1.33
2017-10-22T07:04:26.526Z,1.70
2017-10-22T07:06:54.082Z,1.97
2017-10-22T07:09:21.601Z,1.40
2017-10-22T07:11:49.085Z,1.93
2017-10-22T07:14:16.643Z,1.50
2017-10-22T07:16:44.172Z,1.60
2017-10-22T07:19:12.448Z,1.73
2017-10-22T07:21:39.943Z,1.80
2017-10-22T07:24:07.463Z,2.00
2017-10-22T07:26:35.008Z,1.60
2017-10-22T07:29:02.563Z,1.37
2017-10-22T07:31:30.113Z,1.57
2017-10-22T07:33:57.629Z,1.80
2017-10-22T07:36:25.189Z,3.00
2017-10-22T07:38:52.701Z,1.73
2017-10-22T07:41:20.260Z,2.13
2017-10-22T07:43:47.799Z,1.37
2017-10-22T07:46:15.343Z,1.83
2017-10-22T07:48:42.897Z,1.07
2017-10-22T07:51:10.478Z,1.63
2017-10-22T07:53:38.029Z,1.10
2017-10-22T07:56:05.552Z,1.30
2017-10-22T07:58:33.096Z,0.90
2017-10-22T08:01:01.416Z,1.43
2017-10-22T08:03:28.943Z,1.50
2017-10-22T08:05:56.477Z,1.23
2017-10-22T08:08:24.020Z,1.03
2017-10-22T08:10:51.554Z,1.80
2017-10-22T08:13:19.066Z,1.13
2017-10-22T08:15:47.368Z,1.10
2017-10-22T08:18:14.901Z,1.10
2017-10-22T08:20:43.230Z,1.20
2017-10-22T08:23:10.740Z,1.23
2017-10-22T08:25:39.069Z,1.10
2017-10-22T08:28:07.312Z,0.90
2017-10-22T08:30:34.826Z,1.60
2017-10-22T08:33:02.374Z,1.47
2017-10-22T08:35:29.917Z,0.93
2017-10-22T08:37:57.485Z,0.87
2017-10-22T08:40:25.008Z,1.00
2017-10-22T08:42:52.606Z,1.40
2017-10-22T08:45:20.160Z,1.23
2017-10-22T08:47:47.704Z,0.93
2017-10-22T08:50:15.255Z,1.10
2017-10-22T08:52:42.802Z,1.10
2017-10-22T08:55:10.378Z,1.10
2017-10-22T08:57:37.938Z,1.00
2017-10-22T09:00:05.512Z,1.10
2017-10-22T09:02:33.044Z,1.10
2017-10-22T09:05:00.592Z,1.10
2017-10-22T09:07:28.150Z,0.80
2017-10-22T09:09:56.411Z,1.30
2017-10-22T09:12:24.026Z,1.10
2017-10-22T09:14:51.541Z,1.10
2017-10-22T09:17:19.809Z,0.70
2017-10-22T09:19:48.100Z,1.43
2017-10-22T09:22:15.665Z,1.07
2017-10-22T09:24:43.232Z,1.90
2017-10-22T09:27:10.805Z,1.47
2017-10-22T09:29:38.345Z,1.23
2017-10-22T09:32:05.884Z,1.20
2017-10-22T09:34:33.438Z,1.40
2017-10-22T09:37:01.020Z,0.80
2017-10-22T09:39:28.580Z,1.23
2017-10-22T09:41:56.096Z,1.00
2017-10-22T09:44:23.677Z,1.37
2017-10-22T09:46:51.955Z,1.13
2017-10-22T09:49:19.606Z,1.10
2017-10-22T09:51:47.157Z,1.30
2017-10-22T09:54:14.664Z,0.93
2017-10-22T09:56:42.232Z,0.80
2017-10-22T09:59:09.792Z,0.83
2017-10-22T10:01:37.340Z,1.20
2017-10-22T10:04:04.919Z,1.57
2017-10-22T10:06:32.528Z,1.23
2017-10-22T10:09:00.082Z,1.20
2017-10-22T10:11:27.676Z,1.27
2017-10-22T10:13:55.280Z,1.27
2017-10-22T10:16:22.853Z,1.40
2017-10-22T10:18:50.377Z,0.90
2017-10-22T10:21:18.138Z,0.80
2017-10-22T10:23:45.731Z,1.40
2017-10-22T10:26:13.259Z,0.90
2017-10-22T10:28:40.791Z,0.73
2017-10-22T10:31:08.374Z,0.97
2017-10-22T10:33:35.899Z,0.80
2017-10-22T10:36:03.575Z,1.13
2017-10-22T10:38:31.218Z,1.00
2017-10-22T10:40:59.558Z,1.17
2017-10-22T10:43:27.880Z,0.97
2017-10-22T10:45:55.387Z,1.10
2017-10-22T10:48:23.741Z,1.90
2017-10-22T10:50:51.279Z,0.73
2017-10-22T10:53:19.180Z,1.00
2017-10-22T10:55:46.743Z,1.57
2017-10-22T10:58:15.066Z,1.30
2017-10-22T11:00:42.585Z,1.23
2017-10-22T11:03:10.926Z,1.03
2017-10-22T11:05:38.467Z,1.40
2017-10-22T11:08:05.976Z,0.60
2017-10-22T11:10:34.290Z,0.70
2017-10-22T11:13:01.813Z,1.10
2017-10-22T11:15:30.092Z,0.73
2017-10-22T11:17:58.452Z,1.10
2017-10-22T11:20:25.985Z,0.83
2017-10-22T11:22:53.476Z,1.50
2017-10-22T11:25:21.017Z,0.90
2017-10-22T11:27:48.523Z,0.83
2017-10-22T11:30:16.068Z,0.80
2017-10-22T11:32:44.341Z,0.70
2017-10-22T11:35:11.908Z,0.90
2017-10-22T11:37:40.200Z,1.00
2017-10-22T11:40:07.748Z,1.47
2017-10-22T11:42:36.162Z,1.67
2017-10-22T11:45:03.707Z,0.70
2017-10-22T11:47:31.244Z,0.90
2017-10-22T11:49:59.549Z,0.70
2017-10-22T11:52:27.109Z,0.93
2017-10-22T11:54:54.619Z,0.97
2017-10-22T11:57:22.159Z,1.23
2017-10-22T11:59:49.938Z,0.70
2017-10-22T12:02:17.568Z,0.70
2017-10-22T12:04:45.083Z,1.00
2017-10-22T12:07:13.426Z,0.73
2017-10-22T12:09:40.968Z,0.90
2017-10-22T12:12:08.512Z,1.00
2017-10-22T12:14:36.032Z,0.70
2017-10-22T12:17:04.391Z,0.80
2017-10-22T12:19:32.059Z,0.73
2017-10-22T12:21:59.573Z,0.80
2017-10-22T12:24:27.076Z,1.37
2017-10-22T12:26:54.637Z,0.70
2017-10-22T12:29:22.896Z,0.80
2017-10-22T12:31:51.678Z,0.77
2017-10-22T12:34:19.217Z,0.70
2017-10-22T12:36:46.848Z,0.70
2017-10-22T12:39:14.552Z,0.70
2017-10-22T12:41:42.051Z,0.93
2017-10-22T12:44:10.297Z,0.70
2017-10-22T12:46:38.596Z,0.80
2017-10-22T12:49:07.157Z,0.90
2017-10-22T12:51:34.655Z,0.73
2017-10-22T12:54:02.335Z,1.13
2017-10-22T12:56:29.852Z,0.60
2017-10-22T12:58:58.128Z,0.60
2017-10-22T13:01:26.437Z,0.80
2017-10-22T13:03:54.005Z,0.57
2017-10-22T13:06:21.553Z,0.67
2017-10-22T13:08:49.102Z,0.77
2017-10-22T13:11:17.405Z,0.50
2017-10-22T13:13:45.288Z,0.90
2017-10-22T13:16:12.801Z,0.87
2017-10-22T13:18:40.546Z,0.83
2017-10-22T13:21:08.145Z,1.03
2017-10-22T13:23:35.677Z,0.60
2017-10-22T13:26:03.969Z,0.80
2017-10-22T13:28:31.528Z,0.80
2017-10-22T13:30:59.062Z,1.03
2017-10-22T13:33:27.393Z,1.03
2017-10-22T13:35:54.937Z,0.87
2017-10-22T13:38:22.454Z,0.97
2017-10-22T13:40:50.020Z,1.53
2017-10-22T13:43:17.520Z,1.47
2017-10-22T13:45:45.033Z,1.73
2017-10-22T13:48:12.580Z,0.93
2017-10-22T13:50:40.356Z,1.27
2017-10-22T13:53:07.898Z,1.37
2017-10-22T13:55:35.641Z,0.90
2017-10-22T13:58:03.945Z,1.70
2017-10-22T14:00:31.516Z,1.00
2017-10-22T14:02:59.066Z,1.10
2017-10-22T14:05:27.001Z,0.97
2017-10-22T14:07:55.336Z,0.83
2017-10-22T14:10:22.836Z,1.00
2017-10-22T14:12:51.133Z,1.10
2017-10-22T14:15:18.669Z,0.90
2017-10-22T14:17:46.991Z,1.10
2017-10-22T14:20:14.520Z,1.20
2017-10-22T14:22:42.836Z,1.00
2017-10-22T14:25:10.348Z,1.43
2017-10-22T14:27:38.665Z,1.23
2017-10-22T14:30:06.209Z,0.67
2017-10-22T14:32:33.737Z,0.67
2017-10-22T14:35:02.157Z,0.80
2017-10-22T14:37:29.704Z,0.70
2017-10-22T14:39:57.204Z,0.80
2017-10-22T14:42:24.708Z,0.93
2017-10-22T14:44:52.277Z,0.60
2017-10-22T14:47:19.816Z,0.70
2017-10-22T14:49:47.373Z,1.07
2017-10-22T14:52:15.901Z,1.20
2017-10-22T14:54:43.457Z,1.20
2017-10-22T14:57:11.005Z,1.00
2017-10-22T14:59:38.532Z,0.80
2017-10-22T15:02:06.060Z,0.80
2017-10-22T15:04:33.596Z,1.10
2017-10-22T15:07:01.107Z,1.73
2017-10-22T15:09:29.366Z,0.83
2017-10-22T15:11:56.924Z,0.70
2017-10-22T15:14:24.449Z,0.60
2017-10-22T15:16:52.008Z,0.90
2017-10-22T15:19:19.551Z,0.93
2017-10-22T15:21:47.092Z,0.80
2017-10-22T15:24:14.644Z,1.07
2017-10-22T15:26:42.261Z,1.13
2017-10-22T15:29:09.765Z,2.00
2017-10-22T15:31:38.072Z,0.90
2017-10-22T15:34:05.563Z,1.10
2017-10-22T15:36:33.096Z,1.60
2017-10-22T15:39:00.811Z,1.10
2017-10-22T15:41:29.078Z,1.27
2017-10-22T15:43:56.617Z,1.50
2017-10-22T15:46:24.108Z,1.17
2017-10-22T15:48:51.598Z,1.67
2017-10-22T15:51:19.149Z,2.00
2017-10-22T15:53:46.648Z,2.80
2017-10-22T15:56:14.180Z,2.23
2017-10-22T15:58:42.094Z,2.60
2017-10-22T16:01:10.121Z,1.50
2017-10-22T16:03:37.652Z,1.53
2017-10-22T16:06:05.956Z,1.80
2017-10-22T16:08:33.498Z,1.63
2017-10-22T16:11:01.023Z,4.83
2017-10-22T16:13:28.589Z,2.30
2017-10-22T16:15:56.104Z,2.23
2017-10-22T16:18:23.667Z,2.07
2017-10-22T16:20:51.219Z,2.30
2017-10-22T16:23:18.732Z,3.30
2017-10-22T16:25:46.224Z,3.57
2017-10-22T16:28:13.764Z,1.53
2017-10-22T16:30:42.022Z,1.80
2017-10-22T16:33:10.328Z,1.50
2017-10-22T16:35:37.866Z,5.33
2017-10-22T16:38:05.399Z,4.80
2017-10-22T16:40:32.936Z,4.10
2017-10-22T16:43:00.445Z,2.10
2017-10-22T16:45:27.971Z,1.03
2017-10-22T16:47:55.502Z,8.87
2017-10-22T16:50:22.993Z,7.00
2017-10-22T16:52:50.542Z,5.10
2017-10-22T16:55:18.023Z,2.50
2017-10-22T16:57:45.613Z,2.60
2017-10-22T17:00:13.160Z,3.50
2017-10-22T17:02:41.460Z,2.27
2017-10-22T17:05:08.956Z,2.30
2017-10-22T17:07:36.488Z,2.80
2017-10-22T17:10:04.001Z,7.43
2017-10-22T17:12:32.295Z,2.57
2017-10-22T17:15:00.612Z,2.90
2017-10-22T17:17:28.110Z,1.73
2017-10-22T17:19:55.600Z,2.87
2017-10-22T17:22:23.121Z,5.03
2017-10-22T17:24:50.676Z,2.97
2017-10-22T17:27:18.208Z,3.63
2017-10-22T17:29:45.732Z,3.40
2017-10-22T17:32:13.244Z,3.80
2017-10-22T17:34:40.977Z,5.23
2017-10-22T17:37:08.524Z,5.10
2017-10-22T17:39:36.049Z,4.07
2017-10-22T17:42:03.573Z,4.20
2017-10-22T17:44:31.065Z,4.53
2017-10-22T17:46:58.596Z,4.60
2017-10-22T17:49:26.128Z,3.90
2017-10-22T17:51:54.402Z,4.90
2017-10-22T17:54:21.929Z,5.00
2017-10-22T17:56:49.426Z,4.20
2017-10-22T17:59:17.729Z,3.60
2017-10-22T18:01:45.296Z,3.53
2017-10-22T18:04:13.684Z,3.60
2017-10-22T18:06:41.213Z,2.70
2017-10-22T18:09:08.703Z,3.40
2017-10-22T18:11:36.317Z,3.43
2017-10-22T18:14:03.794Z,3.00
2017-10-22T18:16:31.313Z,2.83
2017-10-22T18:18:58.830Z,3.00
2017-10-22T18:21:26.345Z,4.00
2017-10-22T18:23:54.701Z,3.50
2017-10-22T18:26:22.218Z,3.80
2017-10-22T18:28:49.773Z,4.30
2017-10-22T18:31:17.271Z,4.97
2017-10-22T18:33:44.829Z,5.67
2017-10-22T18:36:12.367Z,4.80
2017-10-22T18:38:39.877Z,5.37
2017-10-22T18:41:08.290Z,5.67
2017-10-22T18:43:35.811Z,4.87
2017-10-22T18:46:03.305Z,4.53
2017-10-22T18:48:30.820Z,4.50
2017-10-22T18:50:58.393Z,4.83
2017-10-22T18:53:25.893Z,3.70
2017-10-22T18:55:53.416Z,3.53
2017-10-22T18:58:20.964Z,3.30
2017-10-22T19:00:49.277Z,2.93
2017-10-22T19:03:16.817Z,3.50
2017-10-22T19:05:44.352Z,3.60
2017-10-22T19:08:11.854Z,4.63
2017-10-22T19:10:39.342Z,2.83
2017-10-22T19:13:06.898Z,2.90
2017-10-22T19:15:34.415Z,3.30
2017-10-22T19:18:01.915Z,3.70
2017-10-22T19:20:29.481Z,2.83
2017-10-22T19:22:56.989Z,2.27
2017-10-22T19:25:24.532Z,3.30
2017-10-22T19:27:52.820Z,4.93
2017-10-22T19:30:20.369Z,3.80
2017-10-22T19:32:48.636Z,2.57
2017-10-22T19:35:16.954Z,2.90
2017-10-22T19:37:44.744Z,3.50
2017-10-22T19:40:12.285Z,7.10
2017-10-22T19:42:39.805Z,5.83
2017-10-22T19:45:08.069Z,3.23
2017-10-22T19:47:35.625Z,3.50
2017-10-22T19:50:03.947Z,3.70
2017-10-22T19:52:32.080Z,2.73
2017-10-22T19:54:59.628Z,2.73
2017-10-22T19:57:27.129Z,3.40
2017-10-22T19:59:55.152Z,2.70
2017-10-22T20:02:22.668Z,2.73
2017-10-22T20:04:50.222Z,2.10
2017-10-22T20:07:17.728Z,2.90
2017-10-22T20:09:45.448Z,2.60
2017-10-22T20:12:12.984Z,2.00
2017-10-22T20:14:40.468Z,3.80
2017-10-22T20:17:07.952Z,3.50
2017-10-22T20:19:35.488Z,2.40
2017-10-22T20:22:03.051Z,2.73
2017-10-22T20:24:30.585Z,2.53
2017-10-22T20:26:58.709Z,2.80
2017-10-22T20:29:26.237Z,2.20
2017-10-22T20:31:54.341Z,2.73
2017-10-22T20:34:21.904Z,7.63
2017-10-22T20:36:49.409Z,5.60
2017-10-22T20:39:16.943Z,4.40
2017-10-22T20:41:44.501Z,3.83
2017-10-22T20:44:13.330Z,3.60
2017-10-22T20:46:40.949Z,2.27
2017-10-22T20:49:09.287Z,2.00
2017-10-22T20:51:36.814Z,2.80
2017-10-22T20:54:04.313Z,4.20
2017-10-22T20:56:31.887Z,3.60
2017-10-22T20:58:59.426Z,3.20
2017-10-22T21:01:26.962Z,3.23
2017-10-22T21:03:54.516Z,2.00
2017-10-22T21:06:22.019Z,2.37
2017-10-22T21:08:49.647Z,2.23
2017-10-22T21:11:17.200Z,2.00
2017-10-22T21:13:44.707Z,2.27
2017-10-22T21:16:12.231Z,2.17
2017-10-22T21:18:39.747Z,1.80
2017-10-22T21:21:08.469Z,2.83
2017-10-22T21:23:35.976Z,2.00
2017-10-22T21:26:03.488Z,2.33
2017-10-22T21:28:31.063Z,2.67
2017-10-22T21:30:58.610Z,2.47
2017-10-22T21:33:26.144Z,1.87
2017-10-22T21:35:53.635Z,1.73
2017-10-22T21:38:21.143Z,2.17
2017-10-22T21:40:49.332Z,2.60
2017-10-22T21:43:16.952Z,1.70
2017-10-22T21:45:44.515Z,2.00
2017-10-22T21:48:12.019Z,1.40
2017-10-22T21:50:39.560Z,2.43
2017-10-22T21:53:07.080Z,2.00
2017-10-22T21:55:34.612Z,1.73
2017-10-22T21:58:02.111Z,1.50
2017-10-22T22:00:29.646Z,2.33
2017-10-22T22:02:57.175Z,2.37
2017-10-22T22:05:24.730Z,1.90
2017-10-22T22:07:52.229Z,2.37
2017-10-22T22:10:19.760Z,2.27
2017-10-22T22:12:47.312Z,2.50
2017-10-22T22:15:14.836Z,2.60
2017-10-22T22:17:43.852Z,1.40
2017-10-22T22:20:11.345Z,1.50
2017-10-22T22:22:38.893Z,1.97
2017-10-22T22:25:06.429Z,2.83
2017-10-22T22:27:33.936Z,2.07
2017-10-22T22:30:01.456Z,2.27
2017-10-22T22:32:29.019Z,2.17
2017-10-22T22:34:56.564Z,2.03
2017-10-22T22:37:24.048Z,1.60
2017-10-22T22:39:51.544Z,1.90
2017-10-22T22:42:19.078Z,2.10
2017-10-22T22:44:46.569Z,1.50
2017-10-22T22:47:14.118Z,1.70
2017-10-22T22:49:41.663Z,1.57
2017-10-22T22:52:09.208Z,2.37
2017-10-22T22:54:36.754Z,1.60
2017-10-22T22:57:04.420Z,2.20
2017-10-22T22:59:31.956Z,1.90
2017-10-22T23:01:59.484Z,2.00
2017-10-22T23:04:26.982Z,1.63
2017-10-22T23:06:54.533Z,1.33
2017-10-22T23:09:22.111Z,1.20
2017-10-22T23:11:49.680Z,1.30
2017-10-22T23:14:17.176Z,1.60
2017-10-22T23:16:44.697Z,1.30
2017-10-22T23:19:12.198Z,1.43
2017-10-22T23:21:40.514Z,1.53
2017-10-22T23:24:07.997Z,1.80
2017-10-22T23:26:35.490Z,1.40
2017-10-22T23:29:03.839Z,1.73
2017-10-22T23:31:31.339Z,1.60
2017-10-22T23:33:59.648Z,1.87
2017-10-22T23:36:27.163Z,1.90
2017-10-22T23:38:55.451Z,1.97
2017-10-22T23:41:22.989Z,2.20
2017-10-22T23:43:50.481Z,3.50
2017-10-22T23:46:17.989Z,1.40
2017-10-22T23:48:45.529Z,1.60
2017-10-22T23:51:13.035Z,2.10
2017-10-22T23:53:40.607Z,1.60
2017-10-22T23:56:08.921Z,2.23
2017-10-22T23:58:36.424Z,1.50
